In Rescue
 
Open Full Screen Window  High Contrast Mode
Wind Gusting 21 knots
13
May 20, 2019 2:25 PM EDT
Weather Information
Wind Direction
  350 °
Wind Speed
  13 kt (15 mph)
Wind Gust
  21 kt (24 mph)
Altimeter
30.06 in
Visibility
10 SM
Temperature
10° C
50° F
Dewpoint
04° C
39° F
Humidity
67%
1hr Rain Fall
00.00 in.
24hr Rain Fall
00.01 in.
Sky Condition
Overcast @ 1,900 ft
MVFR

METAR KLDM 201825Z AUTO 35013G21KT 10SM OVC019 10/04 A3006 RMK AO2 T00960042

FAA Disclaimer: The data displayed is for advisory purposes only and is not to be used for flight planning or operations.